createdAt,value
2022-11-24T00:01:24.727Z,99747.22
2022-11-24T00:03:56.918Z,99742.94
2022-11-24T00:06:24.478Z,99745.06
2022-11-24T00:08:51.513Z,99753.50
2022-11-24T00:11:24.324Z,99751.22
2022-11-24T00:13:51.002Z,99754.91
2022-11-24T00:16:23.615Z,99749.03
2022-11-24T00:18:53.029Z,99761.91
2022-11-24T00:21:20.869Z,99763.97
2022-11-24T00:23:48.780Z,99762.09
2022-11-24T00:26:20.851Z,99764.19
2022-11-24T00:28:49.447Z,99770.69
2022-11-24T00:31:18.066Z,99774.03
2022-11-24T00:33:47.419Z,99763.75
2022-11-24T00:36:14.372Z,99767.38
2022-11-24T00:38:41.368Z,99775.44
2022-11-24T00:41:07.707Z,99762.28
2022-11-24T00:43:34.467Z,99763.53
2022-11-24T00:46:01.072Z,99764.31
2022-11-24T00:48:28.000Z,99763.53
2022-11-24T00:51:03.990Z,99770.22
2022-11-24T00:53:30.696Z,99770.22
2022-11-24T00:55:57.396Z,99770.59
2022-11-24T00:58:24.585Z,99769.38
2022-11-24T01:00:52.757Z,99774.09
2022-11-24T01:03:22.723Z,99773.69
2022-11-24T01:05:49.455Z,99780.44
2022-11-24T01:08:15.880Z,99789.56
2022-11-24T01:10:42.396Z,99789.13
2022-11-24T01:13:09.204Z,99783.53
2022-11-24T01:15:36.633Z,99789.84
2022-11-24T01:18:04.186Z,99799.31
2022-11-24T01:20:31.962Z,99796.09
2022-11-24T01:22:58.580Z,99798.06
2022-11-24T01:25:28.101Z,99790.84
2022-11-24T01:27:54.510Z,99794.78
2022-11-24T01:30:23.005Z,99803.53
2022-11-24T01:32:49.296Z,99802.75
2022-11-24T01:35:15.693Z,99811.09
2022-11-24T01:37:42.049Z,99817.44
2022-11-24T01:40:09.298Z,99821.78
2022-11-24T01:42:52.642Z,99819.31
2022-11-24T01:45:41.231Z,99818.06
2022-11-24T01:48:15.100Z,99818.13
2022-11-24T01:50:43.238Z,99818.53
2022-11-24T01:53:12.550Z,99821.72
2022-11-24T01:55:39.857Z,99818.13
2022-11-24T01:58:13.892Z,99812.94
2022-11-24T02:00:44.223Z,99822.09
2022-11-24T02:03:15.383Z,99819.66
2022-11-24T02:06:05.546Z,99816.88
2022-11-24T02:08:39.630Z,99821.66
2022-11-24T02:11:06.662Z,99822.84
2022-11-24T02:13:38.468Z,99831.13
2022-11-24T02:16:11.239Z,99828.34
2022-11-24T02:18:43.164Z,99835.50
2022-11-24T02:21:12.058Z,99833.06
2022-11-24T02:24:02.589Z,99834.19
2022-11-24T02:26:39.405Z,99832.22
2022-11-24T02:29:06.365Z,99839.75
2022-11-24T02:31:33.190Z,99838.94
2022-11-24T02:33:59.780Z,99840.13
2022-11-24T02:36:26.239Z,99830.97
2022-11-24T02:38:52.775Z,99836.53
2022-11-24T02:41:21.725Z,99839.34
2022-11-24T02:43:56.572Z,99840.13
2022-11-24T02:46:23.294Z,99845.78
2022-11-24T02:48:49.952Z,99840.69
2022-11-24T02:51:17.053Z,99849.13
2022-11-24T02:53:43.515Z,99848.00
2022-11-24T02:56:09.941Z,99851.66
2022-11-24T02:58:36.869Z,99854.13
2022-11-24T03:01:04.184Z,99857.38
2022-11-24T03:03:31.436Z,99858.25
2022-11-24T03:05:58.031Z,99864.31
2022-11-24T03:08:24.407Z,99869.16
2022-11-24T03:10:51.005Z,99878.03
2022-11-24T03:13:17.557Z,99867.72
2022-11-24T03:15:44.060Z,99873.00
2022-11-24T03:18:10.658Z,99879.00
2022-11-24T03:20:37.317Z,99876.25
2022-11-24T03:23:03.701Z,99875.88
2022-11-24T03:25:30.106Z,99879.06
2022-11-24T03:27:58.027Z,99877.53
2022-11-24T03:30:24.438Z,99883.16
2022-11-24T03:32:53.761Z,99877.22
2022-11-24T03:35:21.033Z,99875.28
2022-11-24T03:37:48.268Z,99892.06
2022-11-24T03:40:15.077Z,99885.72
2022-11-24T03:42:41.434Z,99886.97
2022-11-24T03:47:54.835Z,99892.22
2022-11-24T03:50:22.490Z,99887.84
2022-11-24T03:52:50.213Z,99890.66
2022-11-24T03:55:17.851Z,99889.91
2022-11-24T03:57:44.194Z,99891.09
2022-11-24T04:00:12.012Z,99893.91
2022-11-24T04:02:38.704Z,99893.53
2022-11-24T04:05:06.317Z,99902.34
2022-11-24T04:07:32.784Z,99900.78
2022-11-24T04:09:59.286Z,99901.97
2022-11-24T04:12:43.980Z,99896.75
2022-11-24T04:15:19.150Z,99909.50
2022-11-24T04:17:46.607Z,99906.72
2022-11-24T04:20:14.095Z,99912.28
2022-11-24T04:22:40.565Z,99915.44
2022-11-24T04:25:08.394Z,99921.41
2022-11-24T04:27:36.586Z,99917.81
2022-11-24T04:30:05.140Z,99920.59
2022-11-24T04:32:31.719Z,99919.41
2022-11-24T04:34:58.141Z,99925.84
2022-11-24T04:37:24.709Z,99922.66
2022-11-24T04:39:52.368Z,99923.81
2022-11-24T04:42:18.721Z,99929.41
2022-11-24T04:44:45.215Z,99938.97
2022-11-24T04:47:16.919Z,99942.56
2022-11-24T04:49:43.310Z,99941.38
2022-11-24T04:52:10.945Z,99940.22
2022-11-24T04:54:37.296Z,99947.00
2022-11-24T04:57:03.897Z,99948.59
2022-11-24T04:59:30.292Z,99951.03
2022-11-24T05:01:56.663Z,99950.66
2022-11-24T05:04:23.266Z,99955.06
2022-11-24T05:06:50.602Z,99966.66
2022-11-24T05:09:17.876Z,99965.47
2022-11-24T05:11:44.268Z,99963.50
2022-11-24T05:14:10.641Z,99972.66
2022-11-24T05:16:38.000Z,99980.25
2022-11-24T05:19:04.656Z,99978.63
2022-11-24T05:21:31.050Z,99973.78
2022-11-24T05:23:57.440Z,99990.13
2022-11-24T05:26:23.798Z,99990.88
2022-11-24T05:28:50.563Z,99995.25
2022-11-24T05:31:17.162Z,99992.00
2022-11-24T05:33:43.576Z,99996.38
2022-11-24T05:36:30.163Z,99997.09
2022-11-24T05:38:56.950Z,99999.09
2022-11-24T05:41:23.356Z,100007.47
2022-11-24T05:43:49.722Z,100013.00
2022-11-24T05:46:16.531Z,100014.97
2022-11-24T05:48:45.431Z,100016.16
2022-11-24T05:51:11.849Z,100016.97
2022-11-24T05:53:38.185Z,100022.56
2022-11-24T05:56:05.252Z,100023.75
2022-11-24T05:58:31.814Z,100022.56
2022-11-24T06:00:58.219Z,100026.94
2022-11-24T06:03:24.673Z,100034.13
2022-11-24T06:05:53.332Z,100035.31
2022-11-24T06:08:19.624Z,100030.19
2022-11-24T06:10:45.988Z,100031.03
2022-11-24T06:13:12.422Z,100042.56
2022-11-24T06:15:40.497Z,100049.34
2022-11-24T06:18:06.939Z,100048.53
2022-11-24T06:20:33.518Z,100047.75
2022-11-24T06:23:00.688Z,100047.28
2022-11-24T06:25:28.535Z,100057.22
2022-11-24T06:27:55.030Z,100057.59
2022-11-24T06:30:24.408Z,100052.38
2022-11-24T06:32:55.089Z,100058.72
2022-11-24T06:35:21.702Z,100063.13
2022-11-24T06:37:48.122Z,100065.13
2022-11-24T06:40:14.584Z,100069.06
2022-11-24T06:42:40.956Z,100071.84
2022-11-24T06:45:09.644Z,100079.44
2022-11-24T06:47:36.577Z,100077.44
2022-11-24T06:50:03.552Z,100080.22
2022-11-24T06:52:30.118Z,100085.47
2022-11-24T06:54:57.376Z,100084.28
2022-11-24T06:57:23.739Z,100089.47
2022-11-24T06:59:50.176Z,100082.72
2022-11-24T07:02:16.664Z,100081.56
2022-11-24T07:04:43.036Z,100095.94
2022-11-24T07:07:10.485Z,100098.72
2022-11-24T07:09:37.078Z,100103.91
2022-11-24T07:12:04.726Z,100109.16
2022-11-24T07:14:31.739Z,100103.19
2022-11-24T07:16:58.443Z,100111.97
2022-11-24T07:19:25.417Z,100115.59
2022-11-24T07:21:52.008Z,100115.22
2022-11-24T07:24:18.933Z,100120.44
2022-11-24T07:26:45.424Z,100124.09
2022-11-24T07:29:14.690Z,100124.91
2022-11-24T07:31:43.384Z,100133.34
2022-11-24T07:34:10.173Z,100133.75
2022-11-24T07:36:38.458Z,100139.78
2022-11-24T07:39:06.921Z,100145.00
2022-11-24T07:41:33.533Z,100140.28
2022-11-24T07:44:00.089Z,100147.91
2022-11-24T07:46:27.559Z,100158.34
2022-11-24T07:48:54.099Z,100146.78
2022-11-24T07:51:22.203Z,100157.22
2022-11-24T07:53:48.633Z,100157.63
2022-11-24T07:56:15.189Z,100161.25
2022-11-24T07:58:41.548Z,100162.09
2022-11-24T08:01:21.388Z,100169.69
2022-11-24T08:03:48.295Z,100174.94
2022-11-24T08:06:26.093Z,100169.00
2022-11-24T08:08:54.709Z,100175.00
2022-11-24T08:11:21.234Z,100182.66
2022-11-24T08:13:47.883Z,100191.84
2022-11-24T08:16:17.288Z,100192.25
2022-11-24T08:18:48.885Z,100189.91
2022-11-24T08:21:15.501Z,100203.13
2022-11-24T08:23:42.494Z,100196.38
2022-11-24T08:26:13.675Z,100196.38
2022-11-24T08:28:40.074Z,100200.78
2022-11-24T08:31:11.732Z,100209.59
2022-11-24T08:33:38.896Z,100213.19
2022-11-24T08:36:07.570Z,100218.00
2022-11-24T08:38:34.110Z,100221.22
2022-11-24T08:41:05.278Z,100213.66
2022-11-24T08:43:31.962Z,100222.03
2022-11-24T08:46:03.259Z,100228.38
2022-11-24T08:48:32.036Z,100234.31
2022-11-24T08:50:59.446Z,100237.03
2022-11-24T08:53:27.583Z,100236.22
2022-11-24T08:56:00.079Z,100247.34
2022-11-24T08:58:27.770Z,100247.72
2022-11-24T09:00:54.370Z,100250.91
2022-11-24T09:03:20.748Z,100260.44
2022-11-24T09:05:52.050Z,100258.03
2022-11-24T09:08:18.910Z,100250.44
2022-11-24T09:10:45.367Z,100264.00
2022-11-24T09:13:12.273Z,100266.41
2022-11-24T09:15:38.580Z,100267.22
2022-11-24T09:18:05.409Z,100268.41
2022-11-24T09:20:31.987Z,100270.00
2022-11-24T09:22:58.335Z,100279.19
2022-11-24T09:25:24.682Z,100271.59
2022-11-24T09:27:51.452Z,100276.84
2022-11-24T09:30:18.152Z,100279.63
2022-11-24T09:32:44.964Z,100292.44
2022-11-24T09:35:11.738Z,100296.44
2022-11-24T09:37:38.425Z,100295.28
2022-11-24T09:40:05.507Z,100298.50
2022-11-24T09:42:58.020Z,100316.47
2022-11-24T09:46:04.895Z,100316.09
2022-11-24T09:48:47.966Z,100321.03
2022-11-24T09:51:15.860Z,100325.88
2022-11-24T09:53:48.502Z,100322.25
2022-11-24T09:56:21.983Z,100333.06
2022-11-24T09:58:54.678Z,100329.47
2022-11-24T10:01:26.336Z,100325.13
2022-11-24T10:03:54.177Z,100324.75
2022-11-24T10:06:43.888Z,100335.06
2022-11-24T10:09:41.025Z,100339.41
2022-11-24T10:12:30.473Z,100343.00
2022-11-24T10:15:41.466Z,100346.19
2022-11-24T10:18:31.878Z,100348.16
2022-11-24T10:21:40.018Z,100351.78
2022-11-24T10:24:16.099Z,100361.00
2022-11-24T10:27:24.285Z,100355.81
2022-11-24T10:29:52.025Z,100369.84
2022-11-24T10:32:33.694Z,100361.00
2022-11-24T10:35:14.170Z,100367.78
2022-11-24T10:37:54.601Z,100369.78
2022-11-24T10:40:59.124Z,100369.78
2022-11-24T10:43:29.238Z,100367.06
2022-11-24T10:46:08.389Z,100366.69
2022-11-24T10:48:43.855Z,100365.56
2022-11-24T10:51:30.191Z,100381.22
2022-11-24T10:54:21.939Z,100382.91
2022-11-24T10:56:51.414Z,100384.19
2022-11-24T10:59:37.553Z,100389.44
2022-11-24T11:02:29.569Z,100388.69
2022-11-24T11:04:56.219Z,100388.00
2022-11-24T11:07:25.231Z,100398.00
2022-11-24T11:10:21.899Z,100396.75
2022-11-24T11:12:49.472Z,100399.63
2022-11-24T11:15:31.412Z,100408.75
2022-11-24T11:18:00.757Z,100403.66
2022-11-24T11:20:34.304Z,100401.69
2022-11-24T11:23:13.967Z,100401.31
2022-11-24T11:25:42.920Z,100414.56
2022-11-24T11:28:24.409Z,100420.50
2022-11-24T11:31:22.220Z,100421.31
2022-11-24T11:34:03.647Z,100420.94
2022-11-24T11:36:34.082Z,100428.22
2022-11-24T11:39:00.618Z,100415.03
2022-11-24T11:41:32.912Z,100419.00
2022-11-24T11:44:25.784Z,100425.03
2022-11-24T11:46:54.568Z,100417.13
2022-11-24T11:49:21.061Z,100424.41
2022-11-24T11:52:08.895Z,100426.78
2022-11-24T11:55:05.475Z,100431.63
2022-11-24T11:57:50.178Z,100424.84
2022-11-24T12:00:20.277Z,100432.50
2022-11-24T12:03:19.349Z,100430.06
2022-11-24T12:06:23.435Z,100441.69
2022-11-24T12:09:23.963Z,100440.16
2022-11-24T12:12:19.417Z,100434.59
2022-11-24T12:15:30.738Z,100446.22
2022-11-24T12:18:55.360Z,100439.06
2022-11-24T12:21:26.213Z,100433.13
2022-11-24T12:24:05.079Z,100436.31
2022-11-24T12:26:31.547Z,100435.59
2022-11-24T12:29:16.299Z,100437.63
2022-11-24T12:31:52.589Z,100438.44
2022-11-24T12:34:35.279Z,100454.00
2022-11-24T12:37:37.483Z,100452.38
2022-11-24T12:40:31.540Z,100451.19
2022-11-24T12:43:17.678Z,100450.72
2022-11-24T12:45:55.948Z,100453.06
2022-11-24T12:48:41.107Z,100461.44
2022-11-24T12:51:16.770Z,100448.59
2022-11-24T12:53:46.525Z,100460.16
2022-11-24T12:56:16.448Z,100454.94
2022-11-24T12:58:55.226Z,100459.75
2022-11-24T13:01:21.918Z,100456.56
2022-11-24T13:04:19.574Z,100463.34
2022-11-24T13:06:55.644Z,100457.03
2022-11-24T13:09:22.134Z,100459.53
2022-11-24T13:11:51.444Z,100463.19
2022-11-24T13:14:23.302Z,100462.47
2022-11-24T13:17:28.834Z,100456.47
2022-11-24T13:19:52.270Z,100458.56
2022-11-24T13:22:26.154Z,100467.34
2022-11-24T13:25:21.185Z,100456.16
2022-11-24T13:27:52.307Z,100459.03
2022-11-24T13:30:33.506Z,100453.34
2022-11-24T13:33:16.492Z,100455.72
2022-11-24T13:36:01.862Z,100458.09
2022-11-24T13:38:45.569Z,100456.47
2022-11-24T13:41:32.088Z,100464.06
2022-11-24T13:44:13.716Z,100460.47
2022-11-24T13:47:33.824Z,100466.88
2022-11-24T13:50:01.716Z,100454.53
2022-11-24T13:52:39.945Z,100474.88
2022-11-24T13:55:12.416Z,100470.09
2022-11-24T13:57:45.522Z,100473.69
2022-11-24T14:00:36.557Z,100475.25
2022-11-24T14:03:27.347Z,100475.69
2022-11-24T14:05:54.435Z,100468.97
2022-11-24T14:08:30.180Z,100480.94
2022-11-24T14:10:58.610Z,100474.13
2022-11-24T14:13:31.245Z,100477.31
2022-11-24T14:16:14.128Z,100476.88
2022-11-24T14:18:43.063Z,100474.53
2022-11-24T14:21:27.856Z,100474.88
2022-11-24T14:24:14.342Z,100482.09
2022-11-24T14:26:41.319Z,100476.06
2022-11-24T14:29:20.335Z,100483.59
2022-11-24T14:32:01.925Z,100481.56
2022-11-24T14:34:30.554Z,100487.16
2022-11-24T14:36:57.479Z,100468.38
2022-11-24T14:39:26.641Z,100483.97
2022-11-24T14:42:04.006Z,100478.69
2022-11-24T14:44:50.967Z,100484.59
2022-11-24T14:47:39.022Z,100482.94
2022-11-24T14:50:15.309Z,100494.47
2022-11-24T14:52:52.480Z,100494.44
2022-11-24T14:55:28.462Z,100501.13
2022-11-24T14:57:55.434Z,100504.28
2022-11-24T15:00:24.814Z,100496.19
2022-11-24T15:03:01.234Z,100494.53
2022-11-24T15:05:58.618Z,100498.00
2022-11-24T15:08:27.996Z,100495.22
2022-11-24T15:11:00.312Z,100504.28
2022-11-24T15:13:29.691Z,100507.38
2022-11-24T15:16:03.804Z,100508.84
2022-11-24T15:18:43.018Z,100514.31
2022-11-24T15:21:14.275Z,100506.63
2022-11-24T15:24:09.434Z,100509.22
2022-11-24T15:26:42.184Z,100516.00
2022-11-24T15:29:10.941Z,100510.25
2022-11-24T15:31:47.696Z,100516.09
2022-11-24T15:34:37.645Z,100513.59
2022-11-24T15:37:04.025Z,100511.09
2022-11-24T15:39:30.416Z,100518.53
2022-11-24T15:41:56.757Z,100525.56
2022-11-24T15:44:23.284Z,100521.81
2022-11-24T15:46:49.720Z,100523.28
2022-11-24T15:49:16.192Z,100523.91
2022-11-24T15:51:44.975Z,100518.88
2022-11-24T15:54:15.060Z,100526.72
2022-11-24T15:56:42.235Z,100518.16
2022-11-24T15:59:20.680Z,100537.47
2022-11-24T16:01:49.595Z,100542.94
2022-11-24T16:04:16.501Z,100542.34
2022-11-24T16:06:43.014Z,100548.19
2022-11-24T16:09:14.423Z,100543.97
2022-11-24T16:11:40.945Z,100550.63
2022-11-24T16:14:07.506Z,100553.16
2022-11-24T16:16:33.986Z,100542.97
2022-11-24T16:19:00.510Z,100554.75
2022-11-24T16:21:27.037Z,100562.09
2022-11-24T16:23:54.023Z,100557.97
2022-11-24T16:26:20.352Z,100557.78
2022-11-24T16:28:46.703Z,100554.44
2022-11-24T16:31:16.045Z,100559.00
2022-11-24T16:33:44.478Z,100567.59
2022-11-24T16:36:11.011Z,100561.47
2022-11-24T16:38:37.346Z,100557.28
2022-11-24T16:41:04.124Z,100555.94
2022-11-24T16:43:30.866Z,100563.72
2022-11-24T16:46:24.407Z,100566.66
2022-11-24T16:48:54.202Z,100556.69
2022-11-24T16:51:27.693Z,100563.31
2022-11-24T16:54:01.581Z,100567.94
2022-11-24T16:56:29.014Z,100571.78
2022-11-24T16:58:55.418Z,100561.69
2022-11-24T17:01:22.207Z,100563.59
2022-11-24T17:03:48.557Z,100567.88
2022-11-24T17:06:16.613Z,100558.59
2022-11-24T17:08:44.811Z,100568.47
2022-11-24T17:11:22.599Z,100560.31
2022-11-24T17:13:49.813Z,100554.75
2022-11-24T17:16:21.246Z,100564.16
2022-11-24T17:18:48.433Z,100563.66
2022-11-24T17:21:17.830Z,100564.72
2022-11-24T17:23:44.766Z,100561.47
2022-11-24T17:26:16.849Z,100562.16
2022-11-24T17:28:44.072Z,100560.91
2022-11-24T17:31:20.833Z,100557.19
2022-11-24T17:33:48.336Z,100561.94
2022-11-24T17:36:15.057Z,100557.88
2022-11-24T17:38:41.557Z,100562.19
2022-11-24T17:41:08.436Z,100562.88
2022-11-24T17:43:34.767Z,100567.97
2022-11-24T17:46:03.878Z,100568.66
2022-11-24T17:48:31.294Z,100567.72
2022-11-24T17:51:03.685Z,100566.78
2022-11-24T17:53:31.328Z,100575.13
2022-11-24T17:56:02.154Z,100567.81
2022-11-24T17:58:29.954Z,100563.44
2022-11-24T18:00:57.519Z,100573.75
2022-11-24T18:03:25.573Z,100570.97
2022-11-24T18:05:52.008Z,100573.38
2022-11-24T18:08:18.326Z,100569.47
2022-11-24T18:10:44.732Z,100578.28
2022-11-24T18:13:27.470Z,100576.75
2022-11-24T18:16:06.114Z,100584.41
2022-11-24T18:18:36.611Z,100588.59
2022-11-24T18:21:07.540Z,100582.78
2022-11-24T18:23:35.833Z,100578.97
2022-11-24T18:26:05.354Z,100577.13
2022-11-24T18:28:32.367Z,100577.38
2022-11-24T18:31:07.127Z,100575.84
2022-11-24T18:33:37.846Z,100578.88
2022-11-24T18:36:07.095Z,100575.03
2022-11-24T18:38:37.052Z,100577.63
2022-11-24T18:41:04.974Z,100586.91
2022-11-24T18:43:31.511Z,100583.06
2022-11-24T18:45:58.108Z,100582.34
2022-11-24T18:48:26.091Z,100590.03
2022-11-24T18:50:53.898Z,100594.53
2022-11-24T18:53:21.589Z,100591.50
2022-11-24T18:56:00.689Z,100595.91
2022-11-24T18:58:29.989Z,100602.06
2022-11-24T19:01:17.587Z,100601.25
2022-11-24T19:03:48.637Z,100610.53
2022-11-24T19:06:32.639Z,100600.19
2022-11-24T19:09:02.378Z,100606.69
2022-11-24T19:11:37.697Z,100604.25
2022-11-24T19:14:06.241Z,100608.31
2022-11-24T19:16:32.552Z,100609.59
2022-11-24T19:19:00.032Z,100613.63
2022-11-24T19:21:30.357Z,100615.16
2022-11-24T19:24:02.855Z,100604.34
2022-11-24T19:26:30.783Z,100609.13
2022-11-24T19:28:57.513Z,100602.28
2022-11-24T19:31:24.319Z,100610.66
2022-11-24T19:33:52.916Z,100609.84
2022-11-24T19:36:19.759Z,100612.63
2022-11-24T19:38:51.361Z,100603.09
2022-11-24T19:41:19.626Z,100600.31
2022-11-24T19:43:47.014Z,100605.06
2022-11-24T19:46:16.513Z,100613.75
2022-11-24T19:48:45.355Z,100613.75
2022-11-24T19:51:14.477Z,100612.13
2022-11-24T19:53:41.253Z,100608.19
2022-11-24T19:56:13.759Z,100603.34
2022-11-24T19:58:41.117Z,100611.34
2022-11-24T20:01:08.180Z,100602.16
2022-11-24T20:03:35.680Z,100608.91
2022-11-24T20:06:02.309Z,100608.09
2022-11-24T20:08:30.739Z,100609.25
2022-11-24T20:11:27.557Z,100602.78
2022-11-24T20:13:54.188Z,100598.47
2022-11-24T20:16:29.588Z,100605.19
2022-11-24T20:18:58.778Z,100604.72
2022-11-24T20:21:28.747Z,100607.06
2022-11-24T20:23:58.038Z,100604.28
2022-11-24T20:26:28.037Z,100608.56
2022-11-24T20:28:56.478Z,100607.75
2022-11-24T20:31:26.158Z,100614.03
2022-11-24T20:33:52.558Z,100607.66
2022-11-24T20:36:22.538Z,100605.56
2022-11-24T20:38:51.212Z,100605.91
2022-11-24T20:41:20.671Z,100602.66
2022-11-24T20:43:47.879Z,100604.19
2022-11-24T20:46:19.848Z,100604.88
2022-11-24T20:48:46.415Z,100600.47
2022-11-24T20:51:16.323Z,100598.38
2022-11-24T20:53:43.654Z,100599.09
2022-11-24T20:56:17.549Z,100603.00
2022-11-24T20:58:44.084Z,100604.19
2022-11-24T21:01:15.549Z,100599.28
2022-11-24T21:03:43.605Z,100599.28
2022-11-24T21:06:11.958Z,100601.22
2022-11-24T21:08:39.798Z,100594.53
2022-11-24T21:11:07.595Z,100593.72
2022-11-24T21:13:36.264Z,100599.28
2022-11-24T21:16:11.941Z,100597.00
2022-11-24T21:18:38.467Z,100587.13
2022-11-24T21:21:04.945Z,100590.25
2022-11-24T21:23:31.307Z,100589.78
2022-11-24T21:26:05.319Z,100592.88
2022-11-24T21:28:33.403Z,100600.09
2022-11-24T21:31:08.431Z,100596.03
2022-11-24T21:33:43.197Z,100604.38
2022-11-24T21:36:09.778Z,100601.59
2022-11-24T21:38:36.182Z,100603.56
2022-11-24T21:41:06.596Z,100607.03
2022-11-24T21:43:34.640Z,100599.84
2022-11-24T21:46:09.190Z,100608.44
2022-11-24T21:48:36.792Z,100599.63
2022-11-24T21:51:06.992Z,100607.06
2022-11-24T21:53:36.158Z,100604.50
2022-11-24T21:56:05.721Z,100601.47
2022-11-24T21:58:33.461Z,100601.22
2022-11-24T22:01:08.942Z,100593.78
2022-11-24T22:03:35.838Z,100587.66
2022-11-24T22:06:03.262Z,100592.63
2022-11-24T22:08:30.738Z,100586.00
2022-11-24T22:11:06.032Z,100580.88
2022-11-24T22:13:32.986Z,100582.72
2022-11-24T22:16:03.774Z,100575.75
2022-11-24T22:18:32.958Z,100587.09
2022-11-24T22:20:59.716Z,100579.78
2022-11-24T22:23:26.429Z,100580.81
2022-11-24T22:25:52.792Z,100578.25
2022-11-24T22:28:20.736Z,100578.47
2022-11-24T22:30:47.159Z,100575.53
2022-11-24T22:33:13.701Z,100575.75
2022-11-24T22:35:40.141Z,100570.91
2022-11-24T22:38:06.560Z,100569.94
2022-11-24T22:40:33.916Z,100569.00
2022-11-24T22:43:00.297Z,100576.03
2022-11-24T22:45:26.853Z,100567.59
2022-11-24T22:47:55.121Z,100561.88
2022-11-24T22:50:21.676Z,100559.44
2022-11-24T22:52:49.908Z,100566.47
2022-11-24T22:55:16.584Z,100564.03
2022-11-24T22:57:47.932Z,100566.00
2022-11-24T23:00:15.482Z,100567.63
2022-11-24T23:02:42.129Z,100564.50
2022-11-24T23:05:09.073Z,100562.72
2022-11-24T23:07:35.645Z,100553.69
2022-11-24T23:10:02.508Z,100559.50
2022-11-24T23:12:28.915Z,100559.28
2022-11-24T23:14:55.417Z,100561.53
2022-11-24T23:17:21.760Z,100563.75
2022-11-24T23:19:48.138Z,100561.56
2022-11-24T23:22:14.524Z,100551.84
2022-11-24T23:24:41.025Z,100553.28
2022-11-24T23:27:07.585Z,100552.72
2022-11-24T23:29:34.001Z,100552.13
2022-11-24T23:32:00.525Z,100548.31
2022-11-24T23:34:27.080Z,100548.22
2022-11-24T23:36:53.420Z,100546.38
2022-11-24T23:39:19.718Z,100549.75
2022-11-24T23:41:46.052Z,100540.00
2022-11-24T23:44:12.345Z,100548.13
2022-11-24T23:46:38.666Z,100543.63
2022-11-24T23:49:05.048Z,100543.38
2022-11-24T23:51:33.369Z,100540.38
2022-11-24T23:54:00.736Z,100535.38
2022-11-24T23:56:32.252Z,100537.91
2022-11-24T23:58:59.133Z,100526.91
